• Join FlightAware (Why Join?)
  • Login
  • US Flag 
11:51PM EST


 

Airport Tracker/Info


-or-


 

Live Flight TrackerFlight Track Log ✈ N589H ✈ 27-Feb-2014 ✈ KILM - KPIE

Flight Track Log - Related Links

Times and Time Zones

All times are in EST time to prevent confusion due to time zone crossing. See the N589H flight status page for this flight to view local times or setup timezone preferences in your user account.

Time Position Orientation Groundspeed Altitude Reporting Facility
EST Latitude Longitude Course Direction KTS MPH feet Rate Location/Type
06:03PM 34.2042 -77.9875 225° Southwest 177 204 4,400  Level Washington Center
06:04PM 34.1719 -78.0317 229° Southwest 183 211 6,500 2,217 Climbing Washington Center
06:06PM 34.0869 -78.1411 227° Southwest 176 203 11,900 2,287 Climbing Jacksonville Center
06:07PM 34.0533 -78.1856 228° Southwest 201 231 14,200 2,200 Climbing Jacksonville Center
06:08PM 34.0153 -78.2353 227° Southwest 201 231 16,300 2,150 Climbing Jacksonville Center
06:09PM 33.9756 -78.2850 226° Southwest 201 231 18,500 2,100 Climbing Jacksonville Center
06:10PM 33.9356 -78.3369 227° Southwest 201 231 20,500 1,950 Climbing Jacksonville Center
06:11PM 33.8958 -78.3892 228° Southwest 206 237 22,400 1,250 Climbing Jacksonville Center
06:12PM 33.8519 -78.4489 229° Southwest 219 252 23,000 900 Climbing Jacksonville Center
06:13PM 33.8019 -78.5114 226° Southwest 249 287 24,200 1,400 Climbing Jacksonville Center
06:14PM 33.7519 -78.5739 227° Southwest 261 300 25,800 900 Climbing Jacksonville Center
06:15PM 33.6892 -78.6244 214° Southwest 266 306 26,000 100 Climbing Jacksonville Center
06:16PM 33.6219 -78.6750 212° Southwest 284 327 26,000  Level Jacksonville Center
06:17PM 33.5486 -78.7283 211° Southwest 300 345 26,000  Level Jacksonville Center
06:18PM 33.4772 -78.7814 212° Southwest 306 352 26,000  Level Jacksonville Center
06:19PM 33.4061 -78.8369 213° Southwest 311 358 26,000  Level Jacksonville Center
06:20PM 33.3328 -78.8925 212° Southwest 316 364 26,000  Level Jacksonville Center
06:21PM 33.2594 -78.9481 212° Southwest 316 364 26,000  Level Jacksonville Center
06:22PM 33.1858 -79.0033 212° Southwest 316 364 26,000  Level Jacksonville Center
06:23PM 33.1083 -79.0589 211° Southwest 316 364 26,000  Level Jacksonville Center
06:24PM 33.0369 -79.1139 213° Southwest 316 364 26,000  Level Jacksonville Center
06:25PM 32.9633 -79.1689 212° Southwest 316 364 26,000  Level Jacksonville Center
06:26PM 32.8878 -79.2242 212° Southwest 316 364 26,000  Level Jacksonville Center
06:27PM 32.8142 -79.2789 212° Southwest 316 364 26,000  Level Jacksonville Center
06:28PM 32.7386 -79.3339 211° Southwest 316 364 26,000  Level Jacksonville Center
06:29PM 32.6650 -79.3886 212° Southwest 316 364 26,000  Level Jacksonville Center
06:30PM 32.5914 -79.4431 212° Southwest 316 364 26,000  Level Jacksonville Center
06:31PM 32.5178 -79.4978 212° Southwest 316 364 26,000  Level Jacksonville Center
06:32PM 32.4419 -79.5522 211° Southwest 316 364 26,000  Level Jacksonville Center
06:33PM 32.3661 -79.6067 211° Southwest 316 364 26,000  Level Jacksonville Center
06:34PM 32.2922 -79.6608 212° Southwest 316 364 26,000  Level Jacksonville Center
06:54PM 30.8756 -80.6756 211° Southwest 286 329 26,000  Level Jacksonville Center
06:55PM 30.8721 -80.6397 211° Southwest  Level FlightAware Approximate
06:55PM 30.8097 -80.7253 213° Southwest 306 352 26,000  Level Jacksonville Center
06:56PM 30.8031 -80.6885 211° Southwest  Level FlightAware Approximate
06:56PM 30.7417 -80.7706 210° Southwest 301 346 26,000  Level Jacksonville Center
06:57PM 30.7341 -80.7372 211° Southwest  Level FlightAware Approximate
06:57PM 30.6775 -80.8178 212° Southwest 291 335 26,000  Level Jacksonville Center
06:58PM 30.6651 -80.7858 211° Southwest  Level FlightAware Approximate
06:58PM 30.6117 -80.8628 210° Southwest 286 329 26,000  Level Jacksonville Center
06:59PM 30.5960 -80.8343 211° Southwest  Level FlightAware Approximate
06:59PM 30.5433 -80.9100 211° Southwest 286 329 26,000  Level Jacksonville Center
07:00PM 30.4753 -80.9547 210° Southwest 286 329 26,000  Level Jacksonville Center
07:01PM 30.4092 -81.0019 212° Southwest 286 329 26,000  Level Jacksonville Center
07:02PM 30.3408 -81.0514 212° Southwest 286 329 26,000 -50 Level Jacksonville Center
07:03PM 30.2686 -81.1008 211° Southwest 286 329 25,900 -1,000 Descending Jacksonville Center
07:04PM 30.1983 -81.1478 210° Southwest 291 335 24,000 -950 Descending Jacksonville Center
07:05PM 30.1258 -81.1994 212° Southwest 296 341 24,000 -250 Level Jacksonville Center
07:06PM 30.0575 -81.2464 211° Southwest 296 341 23,500 -750 Descending Jacksonville Center
07:07PM 29.9850 -81.2978 212° Southwest 296 341 22,500 -700 Descending Jacksonville Center
07:08PM 29.9128 -81.3469 211° Southwest 296 341 22,100 -250 Descending Jacksonville Center
07:09PM 29.8422 -81.3961 211° Southwest 296 341 22,000 -50 Descending Jacksonville Center
07:10PM 29.7697 -81.4450 210° Southwest 301 346 22,000  Level Jacksonville Center
07:11PM 29.6994 -81.4939 211° Southwest 301 346 22,000  Level Jacksonville Center
07:12PM 29.6289 -81.5425 211° Southwest 301 346 22,000  Level Jacksonville Center
07:13PM 29.5583 -81.5867 209° Southwest 301 346 22,000  Level Jacksonville Center
07:14PM 29.4900 -81.6375 213° Southwest 301 346 22,000  Level Jacksonville Center
07:15PM 29.4217 -81.6839 211° Southwest 301 346 22,000 -400 Level Jacksonville Center
07:16PM 29.3531 -81.7300 210° Southwest 296 341 21,200 -900 Descending Jacksonville Center
07:17PM 29.2825 -81.7758 210° Southwest 296 341 20,200 -950 Descending Jacksonville Center
07:18PM 29.2161 -81.8172 209° Southwest 296 341 19,300 -2,600 Descending Jacksonville Center
07:19PM 29.1372 -81.8633 207° Southwest 306 352 15,000 -1,150 Descending Jacksonville Center
07:20PM 29.0581 -81.9019 203° Southwest 311 358 17,000 400 Climbing Jacksonville Center
07:21PM 28.9728 -81.9456 204° Southwest 311 358 15,800 -1,300 Descending Jacksonville Center
07:22PM 28.8981 -81.9842 204° Southwest 306 352 14,400 -1,292 Descending Jacksonville Center
07:25PM 28.7167 -82.0667 202° Southwest 281 323 11,300 -976 Descending Tampa TRACON
07:26PM 28.6500 -82.1167 213° Southwest 278 320 11,000 -400 Descending Tampa TRACON
07:27PM 28.6000 -82.1667 221° Southwest 273 314 10,500 -500 Descending Tampa TRACON
07:28PM 28.5500 -82.2333 230° Southwest 272 313 10,000 -250 Descending Tampa TRACON
07:29PM 28.5000 -82.3000 230° Southwest 273 314 10,000 -50 Level Tampa TRACON
07:30PM 28.4667 -82.3833 246° West 270 311 9,900 -50 Descending Tampa TRACON
07:31PM 28.4167 -82.4500 230° Southwest 268 308 9,900 -250 Level Tampa TRACON
07:32PM 28.3833 -82.5167 240° Southwest 268 308 9,400 -800 Descending Tampa TRACON
07:33PM 28.3500 -82.5833 240° Southwest 263 303 8,300 -1,150 Descending Tampa TRACON
07:34PM 28.3000 -82.6500 230° Southwest 265 305 7,100 -1,150 Descending Tampa TRACON
07:35PM 28.2500 -82.7167 230° Southwest 258 297 6,000 -850 Descending Tampa TRACON
07:36PM 28.1833 -82.7333 192° South 230 265 5,400 -1,000 Descending Tampa TRACON
07:37PM 28.1167 -82.7500 192° South 256 295 4,000 -700 Descending Tampa TRACON
07:38PM 28.0500 -82.7667 192° South 240 276 4,000 -50 Level Tampa TRACON
07:39PM 27.9833 -82.7667 180° South 235 270 3,900 -48 Descending Tampa TRACON
07:40PM 27.9167 -82.7833 192° South 230 265 3,900 -429 Level Tampa TRACON
07:41PM 27.8667 -82.7833 180° South 183 211 3,000 -1,100 Descending Tampa TRACON
07:42PM 27.8167 -82.7667 164° South 193 222 1,700 -750 Descending Tampa TRACON
07:43PM 27.8167 -82.7167 90° East 134 154 1,500 -200 Descending Tampa TRACON
07:44PM 27.8333 -82.6833 61° Northeast 127 146 1,300 -450 Descending Tampa TRACON
07:45PM 27.8667 -82.6833 360° North 122 140 600 -700 Descending Tampa TRACON